Página principal
METAR-TAF:

METAR-TAF

Aeroportos :

Livingstone, Zâmbia

latitude: 17-49-18S, longitude: 025-49-22E, altura: 991 m

METAR: em falta

Hora: 23:27 (21:27 UTC)

Previsão

O boletim foi feito há 17 horas e 27 minutos, às 04:00 UTC
Previsão válida de 27 às 06 UTC a 28 às 12 UTC
Vento 5 kt de este com rajadas de 15 kt
Visibilidade 10 km ou mais
Nuvens fragmentadasa uma altura de 1000 ft
Tornando-se
de 27 às 09 UTC a 27 às 11 UTC
Vento 10 kt de este
Nuvens dispersasa uma altura de 3000 ft, Cumulus congestus.
Tornando-se
de 27 às 12 UTC a 27 às 14 UTC
Poucas nuvensa uma altura de 3500 ft, Cumulonimbus.
Nuvens dispersasa uma altura de 4000 ft
Probabilidade 30% :
Temporariamente
de 27 às 15 UTC a 27 às 17 UTC
Visibilidade: 9000 m
trovoada, chuva fraca,

TAF: FLHN 270400Z 2706/2812 09005G15KT 9999 BKN010 BECMG 2709/2711 09010KT SCT030TCU BECMG 2712/2714 FEW035CB SCT040 PROB30 TEMPO 2715/2717 9000 -TSRA

Observações e previsões do tempo de mais de 4000 aeroportos (mensagens METAR e TAF).

As estações disponíveis são os pontos amarelos e vermelhos sobre o mapa.

Mova o rato sobre o mapa para ver o nome da estação.

Depois clique no ponto para visualizar as observações e previsões meteorológicas.

Para alterar o mapa : clique nos botões verdes com uma cruz preta para aumentar o zoom; no botão verde com uma pitada de zoom; ou nas setas verdes para mapas adjacentes.


METAR-TAF: